sensor_id;sensor_type;location;lat;lon;timestamp;P1;durP1;ratioP1;P2;durP2;ratioP2
26502;SDS011;14177;51.520;6.764;2023-03-01T00:01:38;8.02;;;5.60;;
26502;SDS011;14177;51.520;6.764;2023-03-01T00:04:06;9.32;;;5.97;;
26502;SDS011;14177;51.520;6.764;2023-03-01T00:06:33;7.57;;;5.97;;
26502;SDS011;14177;51.520;6.764;2023-03-01T00:09:01;9.88;;;6.20;;
26502;SDS011;14177;51.520;6.764;2023-03-01T00:11:30;8.70;;;6.03;;
26502;SDS011;14177;51.520;6.764;2023-03-01T00:13:59;8.02;;;5.90;;
26502;SDS011;14177;51.520;6.764;2023-03-01T00:16:29;10.88;;;6.05;;
26502;SDS011;14177;51.520;6.764;2023-03-01T00:19:00;8.48;;;5.90;;
26502;SDS011;14177;51.520;6.764;2023-03-01T00:21:27;9.38;;;6.22;;
26502;SDS011;14177;51.520;6.764;2023-03-01T00:23:55;8.68;;;6.38;;
26502;SDS011;14177;51.520;6.764;2023-03-01T00:26:23;10.68;;;6.05;;
26502;SDS011;14177;51.520;6.764;2023-03-01T00:28:52;8.30;;;5.40;;
26502;SDS011;14177;51.520;6.764;2023-03-01T00:31:22;8.55;;;5.82;;
26502;SDS011;14177;51.520;6.764;2023-03-01T00:33:53;10.23;;;6.40;;
26502;SDS011;14177;51.520;6.764;2023-03-01T00:36:28;9.75;;;6.03;;
26502;SDS011;14177;51.520;6.764;2023-03-01T00:38:59;11.25;;;6.00;;
26502;SDS011;14177;51.520;6.764;2023-03-01T00:41:27;9.13;;;5.78;;
26502;SDS011;14177;51.520;6.764;2023-03-01T00:43:54;6.78;;;5.47;;
26502;SDS011;14177;51.520;6.764;2023-03-01T00:46:23;7.63;;;5.55;;
26502;SDS011;14177;51.520;6.764;2023-03-01T00:48:53;7.22;;;5.63;;
26502;SDS011;14177;51.520;6.764;2023-03-01T00:51:21;9.52;;;6.40;;
26502;SDS011;14177;51.520;6.764;2023-03-01T00:53:55;10.38;;;6.20;;
26502;SDS011;14177;51.520;6.764;2023-03-01T00:56:26;8.68;;;6.50;;
26502;SDS011;14177;51.520;6.764;2023-03-01T00:58:54;9.45;;;6.18;;
26502;SDS011;14177;51.520;6.764;2023-03-01T01:01:22;8.90;;;6.32;;
26502;SDS011;14177;51.520;6.764;2023-03-01T01:03:57;10.85;;;6.75;;
26502;SDS011;14177;51.520;6.764;2023-03-01T01:06:29;8.80;;;5.70;;
26502;SDS011;14177;51.520;6.764;2023-03-01T01:09:03;10.15;;;6.47;;
26502;SDS011;14177;51.520;6.764;2023-03-01T01:11:33;9.98;;;6.07;;
26502;SDS011;14177;51.520;6.764;2023-03-01T01:14:04;11.32;;;6.28;;
26502;SDS011;14177;51.520;6.764;2023-03-01T01:16:31;10.50;;;6.18;;
26502;SDS011;14177;51.520;6.764;2023-03-01T01:18:58;15.10;;;6.05;;
26502;SDS011;14177;51.520;6.764;2023-03-01T01:21:27;10.25;;;6.45;;
26502;SDS011;14177;51.520;6.764;2023-03-01T01:23:55;9.35;;;6.35;;
26502;SDS011;14177;51.520;6.764;2023-03-01T01:26:27;14.27;;;7.10;;
26502;SDS011;14177;51.520;6.764;2023-03-01T01:28:57;12.63;;;6.85;;
26502;SDS011;14177;51.520;6.764;2023-03-01T01:31:28;7.93;;;6.13;;
26502;SDS011;14177;51.520;6.764;2023-03-01T01:33:56;9.52;;;5.68;;
26502;SDS011;14177;51.520;6.764;2023-03-01T01:36:25;9.57;;;6.22;;
26502;SDS011;14177;51.520;6.764;2023-03-01T01:38:53;9.95;;;6.18;;
26502;SDS011;14177;51.520;6.764;2023-03-01T01:41:21;10.13;;;6.40;;
26502;SDS011;14177;51.520;6.764;2023-03-01T01:57:36;10.75;;;6.75;;
26502;SDS011;14177;51.520;6.764;2023-03-01T02:00:10;11.57;;;6.10;;
26502;SDS011;14177;51.520;6.764;2023-03-01T02:02:43;10.13;;;6.43;;
26502;SDS011;14177;51.520;6.764;2023-03-01T02:08:07;8.77;;;6.03;;
26502;SDS011;14177;51.520;6.764;2023-03-01T02:10:37;8.63;;;5.75;;
26502;SDS011;14177;51.520;6.764;2023-03-01T02:13:06;10.18;;;6.15;;
26502;SDS011;14177;51.520;6.764;2023-03-01T02:15:35;11.60;;;6.57;;
26502;SDS011;14177;51.520;6.764;2023-03-01T02:18:05;7.65;;;5.80;;
26502;SDS011;14177;51.520;6.764;2023-03-01T02:23:21;10.43;;;6.43;;
26502;SDS011;14177;51.520;6.764;2023-03-01T02:28:35;10.68;;;6.35;;
26502;SDS011;14177;51.520;6.764;2023-03-01T02:31:06;10.30;;;6.20;;
26502;SDS011;14177;51.520;6.764;2023-03-01T02:33:54;7.82;;;5.72;;
26502;SDS011;14177;51.520;6.764;2023-03-01T02:36:24;11.63;;;6.80;;
26502;SDS011;14177;51.520;6.764;2023-03-01T02:38:57;8.85;;;5.93;;
26502;SDS011;14177;51.520;6.764;2023-03-01T02:41:28;10.23;;;6.00;;
26502;SDS011;14177;51.520;6.764;2023-03-01T02:44:05;8.18;;;5.97;;
26502;SDS011;14177;51.520;6.764;2023-03-01T02:46:33;8.43;;;6.00;;
26502;SDS011;14177;51.520;6.764;2023-03-01T02:57:41;8.68;;;5.78;;
26502;SDS011;14177;51.520;6.764;2023-03-01T03:00:12;8.32;;;5.63;;
26502;SDS011;14177;51.520;6.764;2023-03-01T03:02:48;10.20;;;6.65;;
26502;SDS011;14177;51.520;6.764;2023-03-01T03:05:21;8.98;;;5.70;;
26502;SDS011;14177;51.520;6.764;2023-03-01T03:07:54;10.23;;;6.53;;
26502;SDS011;14177;51.520;6.764;2023-03-01T03:10:24;10.35;;;6.60;;
26502;SDS011;14177;51.520;6.764;2023-03-01T03:12:56;10.48;;;6.07;;
26502;SDS011;14177;51.520;6.764;2023-03-01T03:15:27;10.35;;;6.55;;
26502;SDS011;14177;51.520;6.764;2023-03-01T03:17:56;10.73;;;6.47;;
26502;SDS011;14177;51.520;6.764;2023-03-01T03:20:25;12.93;;;6.63;;
26502;SDS011;14177;51.520;6.764;2023-03-01T03:22:55;7.57;;;5.40;;
26502;SDS011;14177;51.520;6.764;2023-03-01T03:25:28;9.88;;;6.40;;
26502;SDS011;14177;51.520;6.764;2023-03-01T03:27:56;10.77;;;6.25;;
26502;SDS011;14177;51.520;6.764;2023-03-01T03:30:30;7.80;;;5.65;;
26502;SDS011;14177;51.520;6.764;2023-03-01T03:32:58;11.73;;;6.38;;
26502;SDS011;14177;51.520;6.764;2023-03-01T03:35:29;8.45;;;5.72;;
26502;SDS011;14177;51.520;6.764;2023-03-01T03:38:01;10.65;;;6.97;;
26502;SDS011;14177;51.520;6.764;2023-03-01T03:40:37;10.52;;;5.47;;
26502;SDS011;14177;51.520;6.764;2023-03-01T03:43:29;10.15;;;6.18;;
26502;SDS011;14177;51.520;6.764;2023-03-01T03:45:59;11.35;;;6.38;;
26502;SDS011;14177;51.520;6.764;2023-03-01T03:48:26;10.73;;;6.57;;
26502;SDS011;14177;51.520;6.764;2023-03-01T03:50:54;11.32;;;6.43;;
26502;SDS011;14177;51.520;6.764;2023-03-01T03:53:25;9.45;;;6.25;;
26502;SDS011;14177;51.520;6.764;2023-03-01T03:55:54;8.32;;;6.22;;
26502;SDS011;14177;51.520;6.764;2023-03-01T03:58:22;10.60;;;6.18;;
26502;SDS011;14177;51.520;6.764;2023-03-01T04:00:52;9.75;;;6.30;;
26502;SDS011;14177;51.520;6.764;2023-03-01T04:03:23;9.85;;;6.07;;
26502;SDS011;14177;51.520;6.764;2023-03-01T04:05:52;10.23;;;5.90;;
26502;SDS011;14177;51.520;6.764;2023-03-01T04:08:20;10.23;;;6.30;;
26502;SDS011;14177;51.520;6.764;2023-03-01T04:10:50;12.25;;;6.88;;
26502;SDS011;14177;51.520;6.764;2023-03-01T04:13:22;9.30;;;6.03;;
26502;SDS011;14177;51.520;6.764;2023-03-01T04:15:52;11.23;;;6.55;;
26502;SDS011;14177;51.520;6.764;2023-03-01T04:18:21;12.55;;;7.22;;
26502;SDS011;14177;51.520;6.764;2023-03-01T04:20:52;11.27;;;6.63;;
26502;SDS011;14177;51.520;6.764;2023-03-01T04:23:21;9.80;;;6.88;;
26502;SDS011;14177;51.520;6.764;2023-03-01T04:30:55;11.27;;;6.38;;
26502;SDS011;14177;51.520;6.764;2023-03-01T04:33:25;13.18;;;6.43;;
26502;SDS011;14177;51.520;6.764;2023-03-01T04:35:52;10.18;;;6.53;;
26502;SDS011;14177;51.520;6.764;2023-03-01T04:38:19;10.88;;;6.78;;
26502;SDS011;14177;51.520;6.764;2023-03-01T04:40:47;10.60;;;6.80;;
26502;SDS011;14177;51.520;6.764;2023-03-01T04:43:14;7.40;;;6.20;;
26502;SDS011;14177;51.520;6.764;2023-03-01T04:45:41;15.52;;;7.30;;
26502;SDS011;14177;51.520;6.764;2023-03-01T04:48:08;11.13;;;6.22;;
26502;SDS011;14177;51.520;6.764;2023-03-01T04:50:35;11.25;;;6.30;;
26502;SDS011;14177;51.520;6.764;2023-03-01T04:53:03;11.32;;;7.10;;
26502;SDS011;14177;51.520;6.764;2023-03-01T04:55:30;10.13;;;6.72;;
26502;SDS011;14177;51.520;6.764;2023-03-01T04:57:57;10.35;;;6.75;;
26502;SDS011;14177;51.520;6.764;2023-03-01T05:00:24;8.98;;;6.13;;
26502;SDS011;14177;51.520;6.764;2023-03-01T05:02:52;12.77;;;7.53;;
26502;SDS011;14177;51.520;6.764;2023-03-01T05:07:56;14.77;;;7.27;;
26502;SDS011;14177;51.520;6.764;2023-03-01T05:10:27;13.80;;;7.35;;
26502;SDS011;14177;51.520;6.764;2023-03-01T05:12:57;9.45;;;6.80;;
26502;SDS011;14177;51.520;6.764;2023-03-01T05:15:26;13.05;;;7.22;;
26502;SDS011;14177;51.520;6.764;2023-03-01T05:17:57;14.88;;;7.55;;
26502;SDS011;14177;51.520;6.764;2023-03-01T05:20:26;13.18;;;7.65;;
26502;SDS011;14177;51.520;6.764;2023-03-01T05:22:56;9.38;;;6.78;;
26502;SDS011;14177;51.520;6.764;2023-03-01T05:25:26;10.02;;;7.00;;
26502;SDS011;14177;51.520;6.764;2023-03-01T05:27:53;8.63;;;6.07;;
26502;SDS011;14177;51.520;6.764;2023-03-01T05:30:20;10.52;;;6.95;;
26502;SDS011;14177;51.520;6.764;2023-03-01T05:32:48;15.98;;;7.25;;
26502;SDS011;14177;51.520;6.764;2023-03-01T05:35:22;10.70;;;6.20;;
26502;SDS011;14177;51.520;6.764;2023-03-01T05:37:49;11.27;;;6.70;;
26502;SDS011;14177;51.520;6.764;2023-03-01T05:40:22;10.73;;;6.22;;
26502;SDS011;14177;51.520;6.764;2023-03-01T05:42:52;12.07;;;6.93;;
26502;SDS011;14177;51.520;6.764;2023-03-01T05:45:24;17.80;;;9.45;;
26502;SDS011;14177;51.520;6.764;2023-03-01T05:47:53;21.80;;;10.10;;
26502;SDS011;14177;51.520;6.764;2023-03-01T05:50:22;11.48;;;8.00;;
26502;SDS011;14177;51.520;6.764;2023-03-01T05:53:06;12.40;;;7.15;;
26502;SDS011;14177;51.520;6.764;2023-03-01T05:55:39;12.30;;;6.90;;
26502;SDS011;14177;51.520;6.764;2023-03-01T05:58:13;11.05;;;6.65;;
26502;SDS011;14177;51.520;6.764;2023-03-01T06:03:12;10.48;;;6.38;;
26502;SDS011;14177;51.520;6.764;2023-03-01T06:05:42;11.52;;;7.20;;
26502;SDS011;14177;51.520;6.764;2023-03-01T06:08:10;12.13;;;6.82;;
26502;SDS011;14177;51.520;6.764;2023-03-01T06:10:38;9.02;;;6.63;;
26502;SDS011;14177;51.520;6.764;2023-03-01T06:13:05;13.05;;;7.20;;
26502;SDS011;14177;51.520;6.764;2023-03-01T06:15:32;12.60;;;7.50;;
26502;SDS011;14177;51.520;6.764;2023-03-01T06:17:59;11.38;;;6.93;;
26502;SDS011;14177;51.520;6.764;2023-03-01T06:20:27;12.93;;;7.80;;
26502;SDS011;14177;51.520;6.764;2023-03-01T06:22:55;10.68;;;6.70;;
26502;SDS011;14177;51.520;6.764;2023-03-01T06:25:23;14.40;;;7.38;;
26502;SDS011;14177;51.520;6.764;2023-03-01T06:27:53;15.27;;;7.40;;
26502;SDS011;14177;51.520;6.764;2023-03-01T06:30:20;9.52;;;6.95;;
26502;SDS011;14177;51.520;6.764;2023-03-01T06:32:50;13.90;;;7.03;;
26502;SDS011;14177;51.520;6.764;2023-03-01T06:35:18;13.23;;;7.28;;
26502;SDS011;14177;51.520;6.764;2023-03-01T06:37:46;13.10;;;7.28;;
26502;SDS011;14177;51.520;6.764;2023-03-01T06:40:14;12.52;;;8.15;;
26502;SDS011;14177;51.520;6.764;2023-03-01T06:42:43;14.88;;;6.82;;
26502;SDS011;14177;51.520;6.764;2023-03-01T06:45:15;10.32;;;7.20;;
26502;SDS011;14177;51.520;6.764;2023-03-01T06:47:45;14.32;;;7.32;;
26502;SDS011;14177;51.520;6.764;2023-03-01T06:50:12;13.10;;;7.22;;
26502;SDS011;14177;51.520;6.764;2023-03-01T06:52:41;9.52;;;6.88;;
26502;SDS011;14177;51.520;6.764;2023-03-01T06:55:10;9.88;;;7.05;;
26502;SDS011;14177;51.520;6.764;2023-03-01T06:57:38;11.68;;;7.63;;
26502;SDS011;14177;51.520;6.764;2023-03-01T07:00:06;13.10;;;7.40;;
26502;SDS011;14177;51.520;6.764;2023-03-01T07:02:34;13.27;;;7.85;;
26502;SDS011;14177;51.520;6.764;2023-03-01T07:05:01;10.75;;;7.13;;
26502;SDS011;14177;51.520;6.764;2023-03-01T07:07:29;11.50;;;7.18;;
26502;SDS011;14177;51.520;6.764;2023-03-01T07:09:56;11.98;;;7.38;;
26502;SDS011;14177;51.520;6.764;2023-03-01T07:12:23;13.70;;;7.93;;
26502;SDS011;14177;51.520;6.764;2023-03-01T07:14:51;13.13;;;8.32;;
26502;SDS011;14177;51.520;6.764;2023-03-01T07:17:20;13.68;;;7.78;;
26502;SDS011;14177;51.520;6.764;2023-03-01T07:19:47;16.65;;;8.50;;
26502;SDS011;14177;51.520;6.764;2023-03-01T07:22:14;14.32;;;7.28;;
26502;SDS011;14177;51.520;6.764;2023-03-01T07:24:41;15.13;;;9.00;;
26502;SDS011;14177;51.520;6.764;2023-03-01T07:27:09;19.98;;;8.40;;
26502;SDS011;14177;51.520;6.764;2023-03-01T07:29:36;13.15;;;7.20;;
26502;SDS011;14177;51.520;6.764;2023-03-01T07:32:04;14.30;;;8.55;;
26502;SDS011;14177;51.520;6.764;2023-03-01T07:34:32;11.60;;;7.90;;
26502;SDS011;14177;51.520;6.764;2023-03-01T07:37:00;10.90;;;7.45;;
26502;SDS011;14177;51.520;6.764;2023-03-01T07:39:28;16.95;;;8.07;;
26502;SDS011;14177;51.520;6.764;2023-03-01T07:41:56;15.20;;;8.40;;
26502;SDS011;14177;51.520;6.764;2023-03-01T07:44:22;14.85;;;7.90;;
26502;SDS011;14177;51.520;6.764;2023-03-01T07:46:49;12.00;;;7.63;;
26502;SDS011;14177;51.520;6.764;2023-03-01T07:49:18;14.93;;;8.38;;
26502;SDS011;14177;51.520;6.764;2023-03-01T07:51:46;16.50;;;8.65;;
26502;SDS011;14177;51.520;6.764;2023-03-01T07:54:13;17.90;;;8.82;;
26502;SDS011;14177;51.520;6.764;2023-03-01T07:56:40;14.82;;;8.20;;
26502;SDS011;14177;51.520;6.764;2023-03-01T07:59:07;13.95;;;7.82;;
26502;SDS011;14177;51.520;6.764;2023-03-01T08:01:34;13.00;;;8.77;;
26502;SDS011;14177;51.520;6.764;2023-03-01T08:04:05;14.25;;;8.00;;
26502;SDS011;14177;51.520;6.764;2023-03-01T08:06:34;16.63;;;9.13;;
26502;SDS011;14177;51.520;6.764;2023-03-01T08:09:02;13.77;;;8.50;;
26502;SDS011;14177;51.520;6.764;2023-03-01T08:11:29;15.32;;;7.95;;
26502;SDS011;14177;51.520;6.764;2023-03-01T08:13:56;13.27;;;7.60;;
26502;SDS011;14177;51.520;6.764;2023-03-01T08:16:24;15.07;;;7.97;;
26502;SDS011;14177;51.520;6.764;2023-03-01T08:18:51;15.93;;;7.68;;
26502;SDS011;14177;51.520;6.764;2023-03-01T08:21:18;14.88;;;8.13;;
26502;SDS011;14177;51.520;6.764;2023-03-01T08:23:45;14.23;;;8.05;;
26502;SDS011;14177;51.520;6.764;2023-03-01T08:28:43;12.80;;;7.45;;
26502;SDS011;14177;51.520;6.764;2023-03-01T08:31:21;10.00;;;7.00;;
26502;SDS011;14177;51.520;6.764;2023-03-01T08:33:51;11.93;;;7.10;;
26502;SDS011;14177;51.520;6.764;2023-03-01T08:36:25;12.20;;;7.10;;
26502;SDS011;14177;51.520;6.764;2023-03-01T08:38:59;16.27;;;7.72;;
26502;SDS011;14177;51.520;6.764;2023-03-01T08:41:26;11.93;;;6.72;;
26502;SDS011;14177;51.520;6.764;2023-03-01T08:43:54;10.68;;;6.97;;
26502;SDS011;14177;51.520;6.764;2023-03-01T08:46:26;13.45;;;6.75;;
26502;SDS011;14177;51.520;6.764;2023-03-01T08:48:55;12.90;;;7.63;;
26502;SDS011;14177;51.520;6.764;2023-03-01T08:51:22;12.07;;;6.97;;
26502;SDS011;14177;51.520;6.764;2023-03-01T08:53:51;10.32;;;6.70;;
26502;SDS011;14177;51.520;6.764;2023-03-01T08:56:19;12.57;;;6.80;;
26502;SDS011;14177;51.520;6.764;2023-03-01T08:58:47;11.25;;;7.40;;
26502;SDS011;14177;51.520;6.764;2023-03-01T09:01:16;10.65;;;6.03;;
26502;SDS011;14177;51.520;6.764;2023-03-01T09:03:47;9.57;;;6.55;;
26502;SDS011;14177;51.520;6.764;2023-03-01T09:06:15;12.48;;;7.75;;
26502;SDS011;14177;51.520;6.764;2023-03-01T09:08:44;11.43;;;6.82;;
26502;SDS011;14177;51.520;6.764;2023-03-01T09:11:33;10.38;;;6.65;;
26502;SDS011;14177;51.520;6.764;2023-03-01T09:14:01;11.95;;;7.60;;
26502;SDS011;14177;51.520;6.764;2023-03-01T09:16:31;11.30;;;6.43;;
26502;SDS011;14177;51.520;6.764;2023-03-01T09:19:02;10.68;;;6.60;;
26502;SDS011;14177;51.520;6.764;2023-03-01T09:21:30;9.50;;;6.45;;
26502;SDS011;14177;51.520;6.764;2023-03-01T09:24:07;9.73;;;6.28;;
26502;SDS011;14177;51.520;6.764;2023-03-01T09:26:40;11.05;;;7.07;;
26502;SDS011;14177;51.520;6.764;2023-03-01T09:29:08;12.18;;;7.22;;
26502;SDS011;14177;51.520;6.764;2023-03-01T09:31:35;10.98;;;6.10;;
26502;SDS011;14177;51.520;6.764;2023-03-01T09:34:03;15.52;;;7.50;;
26502;SDS011;14177;51.520;6.764;2023-03-01T09:36:31;11.20;;;6.50;;
26502;SDS011;14177;51.520;6.764;2023-03-01T09:39:00;10.30;;;6.22;;
26502;SDS011;14177;51.520;6.764;2023-03-01T09:47:25;10.40;;;6.80;;
26502;SDS011;14177;51.520;6.764;2023-03-01T09:50:16;9.68;;;6.65;;
26502;SDS011;14177;51.520;6.764;2023-03-01T09:52:47;11.68;;;7.15;;
26502;SDS011;14177;51.520;6.764;2023-03-01T10:01:10;11.25;;;6.93;;
26502;SDS011;14177;51.520;6.764;2023-03-01T10:04:09;15.65;;;7.43;;
26502;SDS011;14177;51.520;6.764;2023-03-01T10:06:53;10.68;;;6.45;;
26502;SDS011;14177;51.520;6.764;2023-03-01T10:09:55;10.98;;;6.38;;
26502;SDS011;14177;51.520;6.764;2023-03-01T10:12:23;9.98;;;6.10;;
26502;SDS011;14177;51.520;6.764;2023-03-01T10:17:56;11.60;;;6.80;;
26502;SDS011;14177;51.520;6.764;2023-03-01T10:20:40;11.38;;;6.68;;
26502;SDS011;14177;51.520;6.764;2023-03-01T10:23:12;11.75;;;6.65;;
26502;SDS011;14177;51.520;6.764;2023-03-01T10:28:20;10.95;;;6.22;;
26502;SDS011;14177;51.520;6.764;2023-03-01T10:30:53;8.23;;;5.93;;
26502;SDS011;14177;51.520;6.764;2023-03-01T10:33:21;11.38;;;6.57;;
26502;SDS011;14177;51.520;6.764;2023-03-01T10:36:02;10.88;;;6.65;;
26502;SDS011;14177;51.520;6.764;2023-03-01T10:38:30;11.52;;;6.60;;
26502;SDS011;14177;51.520;6.764;2023-03-01T10:41:14;13.02;;;6.65;;
26502;SDS011;14177;51.520;6.764;2023-03-01T10:43:48;9.82;;;6.10;;
26502;SDS011;14177;51.520;6.764;2023-03-01T10:49:05;10.23;;;6.35;;
26502;SDS011;14177;51.520;6.764;2023-03-01T10:54:17;8.45;;;5.82;;
26502;SDS011;14177;51.520;6.764;2023-03-01T10:57:01;12.60;;;5.95;;
26502;SDS011;14177;51.520;6.764;2023-03-01T10:59:32;11.02;;;5.75;;
26502;SDS011;14177;51.520;6.764;2023-03-01T11:05:03;13.60;;;6.43;;
26502;SDS011;14177;51.520;6.764;2023-03-01T11:07:49;9.75;;;6.10;;
26502;SDS011;14177;51.520;6.764;2023-03-01T11:10:27;10.00;;;5.65;;
26502;SDS011;14177;51.520;6.764;2023-03-01T11:13:13;9.65;;;6.03;;
26502;SDS011;14177;51.520;6.764;2023-03-01T11:18:33;10.05;;;5.88;;
26502;SDS011;14177;51.520;6.764;2023-03-01T11:21:13;8.98;;;5.13;;
26502;SDS011;14177;51.520;6.764;2023-03-01T11:23:43;10.65;;;5.80;;
26502;SDS011;14177;51.520;6.764;2023-03-01T11:26:13;9.43;;;5.85;;
26502;SDS011;14177;51.520;6.764;2023-03-01T11:28:43;11.15;;;5.85;;
26502;SDS011;14177;51.520;6.764;2023-03-01T11:31:18;9.45;;;5.75;;
26502;SDS011;14177;51.520;6.764;2023-03-01T11:33:47;11.38;;;6.68;;
26502;SDS011;14177;51.520;6.764;2023-03-01T11:54:06;9.45;;;5.47;;
26502;SDS011;14177;51.520;6.764;2023-03-01T11:56:50;8.05;;;5.80;;
26502;SDS011;14177;51.520;6.764;2023-03-01T12:00:17;13.20;;;5.93;;
26502;SDS011;14177;51.520;6.764;2023-03-01T12:12:25;8.65;;;5.47;;
26502;SDS011;14177;51.520;6.764;2023-03-01T12:21:45;7.97;;;5.50;;
26502;SDS011;14177;51.520;6.764;2023-03-01T12:30:09;6.82;;;4.75;;
26502;SDS011;14177;51.520;6.764;2023-03-01T12:39:14;13.13;;;5.85;;
26502;SDS011;14177;51.520;6.764;2023-03-01T12:44:46;10.48;;;5.47;;
26502;SDS011;14177;51.520;6.764;2023-03-01T12:50:40;6.65;;;4.70;;
26502;SDS011;14177;51.520;6.764;2023-03-01T12:53:32;8.20;;;5.30;;
26502;SDS011;14177;51.520;6.764;2023-03-01T12:56:06;9.88;;;5.45;;
26502;SDS011;14177;51.520;6.764;2023-03-01T12:59:04;7.43;;;5.28;;
26502;SDS011;14177;51.520;6.764;2023-03-01T13:01:57;9.85;;;5.70;;
26502;SDS011;14177;51.520;6.764;2023-03-01T13:10:52;11.80;;;6.60;;
26502;SDS011;14177;51.520;6.764;2023-03-01T13:13:29;15.80;;;8.32;;
26502;SDS011;14177;51.520;6.764;2023-03-01T13:15:57;11.52;;;5.82;;
26502;SDS011;14177;51.520;6.764;2023-03-01T13:21:53;12.48;;;6.25;;
26502;SDS011;14177;51.520;6.764;2023-03-01T13:24:28;11.60;;;7.03;;
26502;SDS011;14177;51.520;6.764;2023-03-01T13:29:56;8.95;;;6.07;;
26502;SDS011;14177;51.520;6.764;2023-03-01T13:32:30;12.63;;;6.07;;
26502;SDS011;14177;51.520;6.764;2023-03-01T13:37:46;8.77;;;5.90;;
26502;SDS011;14177;51.520;6.764;2023-03-01T13:42:48;9.30;;;6.07;;
26502;SDS011;14177;51.520;6.764;2023-03-01T13:45:40;9.45;;;6.20;;
26502;SDS011;14177;51.520;6.764;2023-03-01T13:48:11;10.15;;;5.68;;
26502;SDS011;14177;51.520;6.764;2023-03-01T13:51:01;13.50;;;6.53;;
26502;SDS011;14177;51.520;6.764;2023-03-01T13:53:35;9.75;;;6.10;;
26502;SDS011;14177;51.520;6.764;2023-03-01T13:56:12;11.57;;;6.07;;
26502;SDS011;14177;51.520;6.764;2023-03-01T14:01:56;10.55;;;5.78;;
26502;SDS011;14177;51.520;6.764;2023-03-01T14:04:37;10.65;;;6.07;;
26502;SDS011;14177;51.520;6.764;2023-03-01T14:07:08;8.45;;;5.47;;
26502;SDS011;14177;51.520;6.764;2023-03-01T14:09:58;9.73;;;6.43;;
26502;SDS011;14177;51.520;6.764;2023-03-01T14:18:10;14.73;;;6.32;;
26502;SDS011;14177;51.520;6.764;2023-03-01T14:20:56;12.45;;;6.03;;
26502;SDS011;14177;51.520;6.764;2023-03-01T14:23:23;11.07;;;6.43;;
26502;SDS011;14177;51.520;6.764;2023-03-01T14:25:57;13.07;;;7.25;;
26502;SDS011;14177;51.520;6.764;2023-03-01T14:28:26;10.65;;;6.32;;
26502;SDS011;14177;51.520;6.764;2023-03-01T14:30:57;9.90;;;6.57;;
26502;SDS011;14177;51.520;6.764;2023-03-01T14:33:30;11.07;;;6.30;;
26502;SDS011;14177;51.520;6.764;2023-03-01T14:38:40;12.98;;;6.53;;
26502;SDS011;14177;51.520;6.764;2023-03-01T14:41:20;9.75;;;6.38;;
26502;SDS011;14177;51.520;6.764;2023-03-01T14:43:52;11.75;;;6.50;;
26502;SDS011;14177;51.520;6.764;2023-03-01T14:46:32;12.32;;;7.13;;
26502;SDS011;14177;51.520;6.764;2023-03-01T14:49:07;9.15;;;6.03;;
26502;SDS011;14177;51.520;6.764;2023-03-01T14:51:42;11.98;;;6.85;;
26502;SDS011;14177;51.520;6.764;2023-03-01T14:57:13;12.27;;;7.20;;
26502;SDS011;14177;51.520;6.764;2023-03-01T14:59:53;11.63;;;7.00;;
26502;SDS011;14177;51.520;6.764;2023-03-01T15:02:26;10.77;;;6.87;;
26502;SDS011;14177;51.520;6.764;2023-03-01T15:04:56;11.25;;;6.90;;
26502;SDS011;14177;51.520;6.764;2023-03-01T15:07:31;11.38;;;7.13;;
26502;SDS011;14177;51.520;6.764;2023-03-01T15:10:04;11.65;;;7.00;;
26502;SDS011;14177;51.520;6.764;2023-03-01T15:12:40;12.50;;;6.82;;
26502;SDS011;14177;51.520;6.764;2023-03-01T15:15:41;11.50;;;6.30;;
26502;SDS011;14177;51.520;6.764;2023-03-01T15:18:05;13.32;;;6.47;;
26502;SDS011;14177;51.520;6.764;2023-03-01T15:20:43;12.13;;;6.07;;
26502;SDS011;14177;51.520;6.764;2023-03-01T15:23:17;10.77;;;6.13;;
26502;SDS011;14177;51.520;6.764;2023-03-01T15:25:51;9.45;;;5.72;;
26502;SDS011;14177;51.520;6.764;2023-03-01T15:28:30;9.25;;;5.85;;
26502;SDS011;14177;51.520;6.764;2023-03-01T15:31:22;10.15;;;5.60;;
26502;SDS011;14177;51.520;6.764;2023-03-01T15:34:06;11.23;;;6.05;;
26502;SDS011;14177;51.520;6.764;2023-03-01T15:36:49;9.85;;;6.03;;
26502;SDS011;14177;51.520;6.764;2023-03-01T15:41:56;10.10;;;5.68;;
26502;SDS011;14177;51.520;6.764;2023-03-01T15:44:25;8.38;;;5.45;;
26502;SDS011;14177;51.520;6.764;2023-03-01T15:47:21;9.82;;;5.63;;
26502;SDS011;14177;51.520;6.764;2023-03-01T15:49:57;9.98;;;5.55;;
26502;SDS011;14177;51.520;6.764;2023-03-01T15:52:49;9.68;;;6.18;;
26502;SDS011;14177;51.520;6.764;2023-03-01T15:55:20;9.75;;;5.95;;
26502;SDS011;14177;51.520;6.764;2023-03-01T15:57:56;9.98;;;5.28;;
26502;SDS011;14177;51.520;6.764;2023-03-01T16:03:12;11.15;;;6.38;;
26502;SDS011;14177;51.520;6.764;2023-03-01T16:05:39;12.38;;;7.07;;
26502;SDS011;14177;51.520;6.764;2023-03-01T16:08:06;11.27;;;6.75;;
26502;SDS011;14177;51.520;6.764;2023-03-01T16:10:33;11.52;;;6.70;;
26502;SDS011;14177;51.520;6.764;2023-03-01T16:13:01;13.77;;;6.47;;
26502;SDS011;14177;51.520;6.764;2023-03-01T16:15:29;9.85;;;6.20;;
26502;SDS011;14177;51.520;6.764;2023-03-01T16:18:00;11.77;;;6.40;;
26502;SDS011;14177;51.520;6.764;2023-03-01T16:20:28;14.20;;;7.25;;
26502;SDS011;14177;51.520;6.764;2023-03-01T16:22:59;11.77;;;6.72;;
26502;SDS011;14177;51.520;6.764;2023-03-01T16:25:29;12.65;;;6.95;;
26502;SDS011;14177;51.520;6.764;2023-03-01T16:28:00;11.25;;;7.07;;
26502;SDS011;14177;51.520;6.764;2023-03-01T16:30:31;10.55;;;6.47;;
26502;SDS011;14177;51.520;6.764;2023-03-01T16:32:59;10.32;;;6.60;;
26502;SDS011;14177;51.520;6.764;2023-03-01T16:35:26;12.32;;;5.82;;
26502;SDS011;14177;51.520;6.764;2023-03-01T16:37:53;10.07;;;6.53;;
26502;SDS011;14177;51.520;6.764;2023-03-01T16:40:21;14.30;;;7.32;;
26502;SDS011;14177;51.520;6.764;2023-03-01T16:42:55;9.90;;;6.63;;
26502;SDS011;14177;51.520;6.764;2023-03-01T16:45:33;9.10;;;6.07;;
26502;SDS011;14177;51.520;6.764;2023-03-01T16:48:02;9.80;;;6.57;;
26502;SDS011;14177;51.520;6.764;2023-03-01T16:50:30;11.70;;;6.93;;
26502;SDS011;14177;51.520;6.764;2023-03-01T16:52:57;12.20;;;6.72;;
26502;SDS011;14177;51.520;6.764;2023-03-01T16:55:24;12.27;;;6.55;;
26502;SDS011;14177;51.520;6.764;2023-03-01T16:57:51;13.40;;;6.95;;
26502;SDS011;14177;51.520;6.764;2023-03-01T17:00:18;13.07;;;7.25;;
26502;SDS011;14177;51.520;6.764;2023-03-01T17:02:45;13.05;;;6.95;;
26502;SDS011;14177;51.520;6.764;2023-03-01T17:05:13;12.88;;;7.00;;
26502;SDS011;14177;51.520;6.764;2023-03-01T17:07:40;10.15;;;5.88;;
26502;SDS011;14177;51.520;6.764;2023-03-01T17:10:09;11.50;;;6.28;;
26502;SDS011;14177;51.520;6.764;2023-03-01T17:12:37;11.00;;;7.22;;
26502;SDS011;14177;51.520;6.764;2023-03-01T17:15:05;11.82;;;6.72;;
26502;SDS011;14177;51.520;6.764;2023-03-01T17:17:33;11.30;;;6.63;;
26502;SDS011;14177;51.520;6.764;2023-03-01T17:20:00;13.63;;;6.13;;
26502;SDS011;14177;51.520;6.764;2023-03-01T17:22:30;11.30;;;6.45;;
26502;SDS011;14177;51.520;6.764;2023-03-01T17:24:57;13.02;;;6.43;;
26502;SDS011;14177;51.520;6.764;2023-03-01T17:27:24;10.95;;;5.95;;
26502;SDS011;14177;51.520;6.764;2023-03-01T17:29:51;12.98;;;5.93;;
26502;SDS011;14177;51.520;6.764;2023-03-01T17:32:18;12.77;;;6.22;;
26502;SDS011;14177;51.520;6.764;2023-03-01T17:34:45;10.82;;;5.70;;
26502;SDS011;14177;51.520;6.764;2023-03-01T17:37:12;12.77;;;6.65;;
26502;SDS011;14177;51.520;6.764;2023-03-01T17:39:39;11.80;;;7.65;;
26502;SDS011;14177;51.520;6.764;2023-03-01T17:42:06;12.88;;;6.85;;
26502;SDS011;14177;51.520;6.764;2023-03-01T17:44:33;13.43;;;7.30;;
26502;SDS011;14177;51.520;6.764;2023-03-01T17:47:01;14.73;;;8.00;;